sensor_id;sensor_type;location;lat;lon;timestamp;P1;durP1;ratioP1;P2;durP2;ratioP2
16640;SDS011;8434;47.990;7.880;2024-03-22T00:01:51;6.60;;;3.93;;
16640;SDS011;8434;47.990;7.880;2024-03-22T00:04:37;5.27;;;3.80;;
16640;SDS011;8434;47.990;7.880;2024-03-22T00:07:23;6.23;;;4.87;;
16640;SDS011;8434;47.990;7.880;2024-03-22T00:10:07;7.53;;;4.43;;
16640;SDS011;8434;47.990;7.880;2024-03-22T00:12:53;6.63;;;4.07;;
16640;SDS011;8434;47.990;7.880;2024-03-22T00:15:38;4.83;;;4.00;;
16640;SDS011;8434;47.990;7.880;2024-03-22T00:18:23;8.20;;;4.40;;
16640;SDS011;8434;47.990;7.880;2024-03-22T00:21:09;5.27;;;4.30;;
16640;SDS011;8434;47.990;7.880;2024-03-22T00:23:54;6.37;;;3.97;;
16640;SDS011;8434;47.990;7.880;2024-03-22T00:26:39;5.63;;;4.43;;
16640;SDS011;8434;47.990;7.880;2024-03-22T00:29:33;9.07;;;4.40;;
16640;SDS011;8434;47.990;7.880;2024-03-22T00:32:18;5.87;;;4.77;;
16640;SDS011;8434;47.990;7.880;2024-03-22T00:35:03;7.47;;;4.43;;
16640;SDS011;8434;47.990;7.880;2024-03-22T00:37:49;6.73;;;5.17;;
16640;SDS011;8434;47.990;7.880;2024-03-22T00:40:34;7.87;;;4.10;;
16640;SDS011;8434;47.990;7.880;2024-03-22T00:43:19;6.37;;;4.30;;
16640;SDS011;8434;47.990;7.880;2024-03-22T00:46:04;7.57;;;4.47;;
16640;SDS011;8434;47.990;7.880;2024-03-22T00:48:49;6.10;;;4.50;;
16640;SDS011;8434;47.990;7.880;2024-03-22T00:51:34;6.53;;;4.87;;
16640;SDS011;8434;47.990;7.880;2024-03-22T00:54:21;5.03;;;4.13;;
16640;SDS011;8434;47.990;7.880;2024-03-22T00:57:05;6.83;;;4.00;;
16640;SDS011;8434;47.990;7.880;2024-03-22T00:59:51;7.03;;;4.50;;
16640;SDS011;8434;47.990;7.880;2024-03-22T01:02:35;10.73;;;4.30;;
16640;SDS011;8434;47.990;7.880;2024-03-22T01:05:21;4.20;;;3.40;;
16640;SDS011;8434;47.990;7.880;2024-03-22T01:08:06;4.87;;;2.87;;
16640;SDS011;8434;47.990;7.880;2024-03-22T01:10:53;5.60;;;3.63;;
16640;SDS011;8434;47.990;7.880;2024-03-22T01:13:37;9.20;;;4.80;;
16640;SDS011;8434;47.990;7.880;2024-03-22T01:16:22;5.33;;;4.07;;
16640;SDS011;8434;47.990;7.880;2024-03-22T01:19:07;6.23;;;4.30;;
16640;SDS011;8434;47.990;7.880;2024-03-22T01:21:54;5.47;;;4.50;;
16640;SDS011;8434;47.990;7.880;2024-03-22T01:24:39;5.57;;;3.77;;
16640;SDS011;8434;47.990;7.880;2024-03-22T01:27:25;4.87;;;4.23;;
16640;SDS011;8434;47.990;7.880;2024-03-22T01:30:10;8.50;;;4.10;;
16640;SDS011;8434;47.990;7.880;2024-03-22T01:32:56;6.20;;;4.47;;
16640;SDS011;8434;47.990;7.880;2024-03-22T01:35:40;8.10;;;4.73;;
16640;SDS011;8434;47.990;7.880;2024-03-22T01:38:28;8.13;;;4.43;;
16640;SDS011;8434;47.990;7.880;2024-03-22T01:41:12;5.30;;;4.23;;
16640;SDS011;8434;47.990;7.880;2024-03-22T01:44:03;8.37;;;4.30;;
16640;SDS011;8434;47.990;7.880;2024-03-22T01:46:47;6.33;;;4.43;;
16640;SDS011;8434;47.990;7.880;2024-03-22T01:49:32;6.07;;;4.40;;
16640;SDS011;8434;47.990;7.880;2024-03-22T01:52:18;5.97;;;4.03;;
16640;SDS011;8434;47.990;7.880;2024-03-22T01:55:03;6.77;;;4.43;;
16640;SDS011;8434;47.990;7.880;2024-03-22T01:57:50;5.70;;;3.97;;
16640;SDS011;8434;47.990;7.880;2024-03-22T02:00:39;5.17;;;3.47;;
16640;SDS011;8434;47.990;7.880;2024-03-22T02:03:23;5.33;;;3.43;;
16640;SDS011;8434;47.990;7.880;2024-03-22T02:06:09;7.17;;;4.03;;
16640;SDS011;8434;47.990;7.880;2024-03-22T02:08:54;7.57;;;4.13;;
16640;SDS011;8434;47.990;7.880;2024-03-22T02:11:39;5.53;;;3.40;;
16640;SDS011;8434;47.990;7.880;2024-03-22T02:14:23;7.33;;;5.20;;
16640;SDS011;8434;47.990;7.880;2024-03-22T02:17:10;12.27;;;5.63;;
16640;SDS011;8434;47.990;7.880;2024-03-22T02:19:55;5.60;;;4.43;;
16640;SDS011;8434;47.990;7.880;2024-03-22T02:22:40;7.27;;;4.30;;
16640;SDS011;8434;47.990;7.880;2024-03-22T02:25:26;6.87;;;4.00;;
16640;SDS011;8434;47.990;7.880;2024-03-22T02:28:11;6.77;;;4.67;;
16640;SDS011;8434;47.990;7.880;2024-03-22T02:30:56;6.07;;;4.80;;
16640;SDS011;8434;47.990;7.880;2024-03-22T02:33:41;5.73;;;4.13;;
16640;SDS011;8434;47.990;7.880;2024-03-22T02:36:26;6.70;;;4.77;;
16640;SDS011;8434;47.990;7.880;2024-03-22T02:39:11;6.43;;;4.77;;
16640;SDS011;8434;47.990;7.880;2024-03-22T02:41:57;5.93;;;4.77;;
16640;SDS011;8434;47.990;7.880;2024-03-22T02:44:42;6.17;;;4.73;;
16640;SDS011;8434;47.990;7.880;2024-03-22T02:47:28;6.70;;;4.43;;
16640;SDS011;8434;47.990;7.880;2024-03-22T02:50:12;5.93;;;4.43;;
16640;SDS011;8434;47.990;7.880;2024-03-22T02:52:57;6.83;;;4.33;;
16640;SDS011;8434;47.990;7.880;2024-03-22T02:55:41;6.37;;;5.17;;
16640;SDS011;8434;47.990;7.880;2024-03-22T02:58:28;5.83;;;5.10;;
16640;SDS011;8434;47.990;7.880;2024-03-22T03:01:13;6.83;;;4.30;;
16640;SDS011;8434;47.990;7.880;2024-03-22T03:03:58;8.83;;;5.27;;
16640;SDS011;8434;47.990;7.880;2024-03-22T03:06:43;7.50;;;4.67;;
16640;SDS011;8434;47.990;7.880;2024-03-22T03:09:29;7.47;;;4.77;;
16640;SDS011;8434;47.990;7.880;2024-03-22T03:12:13;9.00;;;5.13;;
16640;SDS011;8434;47.990;7.880;2024-03-22T03:15:00;8.13;;;5.17;;
16640;SDS011;8434;47.990;7.880;2024-03-22T03:17:45;8.20;;;5.63;;
16640;SDS011;8434;47.990;7.880;2024-03-22T03:20:30;8.60;;;5.57;;
16640;SDS011;8434;47.990;7.880;2024-03-22T03:23:15;6.93;;;5.37;;
16640;SDS011;8434;47.990;7.880;2024-03-22T03:26:00;8.33;;;5.77;;
16640;SDS011;8434;47.990;7.880;2024-03-22T03:28:45;9.70;;;5.17;;
16640;SDS011;8434;47.990;7.880;2024-03-22T03:31:32;7.17;;;4.50;;
16640;SDS011;8434;47.990;7.880;2024-03-22T03:34:16;6.10;;;4.70;;
16640;SDS011;8434;47.990;7.880;2024-03-22T03:37:01;6.13;;;4.13;;
16640;SDS011;8434;47.990;7.880;2024-03-22T03:39:46;7.50;;;4.50;;
16640;SDS011;8434;47.990;7.880;2024-03-22T03:42:31;7.07;;;4.63;;
16640;SDS011;8434;47.990;7.880;2024-03-22T03:45:16;9.77;;;4.67;;
16640;SDS011;8434;47.990;7.880;2024-03-22T03:48:03;7.53;;;4.50;;
16640;SDS011;8434;47.990;7.880;2024-03-22T03:50:51;8.23;;;4.47;;
16640;SDS011;8434;47.990;7.880;2024-03-22T03:53:36;5.13;;;4.00;;
16640;SDS011;8434;47.990;7.880;2024-03-22T03:56:21;7.50;;;4.17;;
16640;SDS011;8434;47.990;7.880;2024-03-22T03:59:06;7.97;;;4.80;;
16640;SDS011;8434;47.990;7.880;2024-03-22T04:01:51;7.40;;;4.90;;
16640;SDS011;8434;47.990;7.880;2024-03-22T04:04:38;6.67;;;4.50;;
16640;SDS011;8434;47.990;7.880;2024-03-22T04:07:23;5.53;;;4.63;;
16640;SDS011;8434;47.990;7.880;2024-03-22T04:10:08;7.30;;;4.80;;
16640;SDS011;8434;47.990;7.880;2024-03-22T04:12:53;6.47;;;4.10;;
16640;SDS011;8434;47.990;7.880;2024-03-22T04:15:38;7.40;;;3.67;;
16640;SDS011;8434;47.990;7.880;2024-03-22T04:18:22;9.00;;;4.40;;
16640;SDS011;8434;47.990;7.880;2024-03-22T04:21:09;7.60;;;4.90;;
16640;SDS011;8434;47.990;7.880;2024-03-22T04:23:54;5.07;;;4.30;;
16640;SDS011;8434;47.990;7.880;2024-03-22T04:26:39;4.60;;;4.07;;
16640;SDS011;8434;47.990;7.880;2024-03-22T04:29:23;6.63;;;4.53;;
16640;SDS011;8434;47.990;7.880;2024-03-22T04:32:09;8.07;;;4.53;;
16640;SDS011;8434;47.990;7.880;2024-03-22T04:34:53;6.70;;;4.30;;
16640;SDS011;8434;47.990;7.880;2024-03-22T04:37:41;5.70;;;4.73;;
16640;SDS011;8434;47.990;7.880;2024-03-22T04:40:26;5.97;;;4.40;;
16640;SDS011;8434;47.990;7.880;2024-03-22T04:43:14;7.50;;;4.90;;
16640;SDS011;8434;47.990;7.880;2024-03-22T04:45:59;11.07;;;6.23;;
16640;SDS011;8434;47.990;7.880;2024-03-22T04:48:44;7.83;;;5.77;;
16640;SDS011;8434;47.990;7.880;2024-03-22T04:51:29;5.87;;;4.00;;
16640;SDS011;8434;47.990;7.880;2024-03-22T04:54:16;9.20;;;4.40;;
16640;SDS011;8434;47.990;7.880;2024-03-22T04:57:00;7.33;;;4.17;;
16640;SDS011;8434;47.990;7.880;2024-03-22T04:59:46;6.47;;;4.07;;
16640;SDS011;8434;47.990;7.880;2024-03-22T05:02:30;4.93;;;3.90;;
16640;SDS011;8434;47.990;7.880;2024-03-22T05:05:16;7.60;;;3.93;;
16640;SDS011;8434;47.990;7.880;2024-03-22T05:08:00;5.33;;;3.63;;
16640;SDS011;8434;47.990;7.880;2024-03-22T05:10:47;5.87;;;3.70;;
16640;SDS011;8434;47.990;7.880;2024-03-22T05:13:31;6.63;;;4.70;;
16640;SDS011;8434;47.990;7.880;2024-03-22T05:16:16;5.13;;;4.60;;
16640;SDS011;8434;47.990;7.880;2024-03-22T05:19:01;6.17;;;4.20;;
16640;SDS011;8434;47.990;7.880;2024-03-22T05:21:46;7.10;;;4.77;;
16640;SDS011;8434;47.990;7.880;2024-03-22T05:24:31;5.60;;;4.20;;
16640;SDS011;8434;47.990;7.880;2024-03-22T05:27:18;7.00;;;4.40;;
16640;SDS011;8434;47.990;7.880;2024-03-22T05:30:02;6.87;;;4.33;;
16640;SDS011;8434;47.990;7.880;2024-03-22T05:32:49;6.87;;;3.90;;
16640;SDS011;8434;47.990;7.880;2024-03-22T05:35:34;6.60;;;4.27;;
16640;SDS011;8434;47.990;7.880;2024-03-22T05:38:19;4.93;;;4.30;;
16640;SDS011;8434;47.990;7.880;2024-03-22T05:41:04;4.67;;;4.10;;
16640;SDS011;8434;47.990;7.880;2024-03-22T05:43:50;7.63;;;3.93;;
16640;SDS011;8434;47.990;7.880;2024-03-22T05:46:34;4.80;;;4.20;;
16640;SDS011;8434;47.990;7.880;2024-03-22T05:49:20;5.73;;;3.87;;
16640;SDS011;8434;47.990;7.880;2024-03-22T05:52:04;5.57;;;3.90;;
16640;SDS011;8434;47.990;7.880;2024-03-22T05:54:50;6.60;;;3.63;;
16640;SDS011;8434;47.990;7.880;2024-03-22T05:57:35;4.87;;;3.50;;
16640;SDS011;8434;47.990;7.880;2024-03-22T06:00:22;6.67;;;3.83;;
16640;SDS011;8434;47.990;7.880;2024-03-22T06:03:06;7.67;;;4.70;;
16640;SDS011;8434;47.990;7.880;2024-03-22T06:05:52;6.90;;;3.50;;
16640;SDS011;8434;47.990;7.880;2024-03-22T06:08:39;4.73;;;3.47;;
16640;SDS011;8434;47.990;7.880;2024-03-22T06:11:26;4.33;;;3.70;;
16640;SDS011;8434;47.990;7.880;2024-03-22T06:14:10;4.63;;;4.10;;
16640;SDS011;8434;47.990;7.880;2024-03-22T06:16:57;5.27;;;3.60;;
16640;SDS011;8434;47.990;7.880;2024-03-22T06:19:42;6.80;;;4.10;;
16640;SDS011;8434;47.990;7.880;2024-03-22T06:22:26;4.43;;;3.40;;
16640;SDS011;8434;47.990;7.880;2024-03-22T06:25:12;5.13;;;3.77;;
16640;SDS011;8434;47.990;7.880;2024-03-22T06:27:56;4.23;;;3.60;;
16640;SDS011;8434;47.990;7.880;2024-03-22T06:30:42;6.67;;;3.20;;
16640;SDS011;8434;47.990;7.880;2024-03-22T06:33:27;8.10;;;3.80;;
16640;SDS011;8434;47.990;7.880;2024-03-22T06:36:13;7.30;;;3.60;;
16640;SDS011;8434;47.990;7.880;2024-03-22T06:38:58;6.23;;;3.90;;
16640;SDS011;8434;47.990;7.880;2024-03-22T06:41:44;5.90;;;4.00;;
16640;SDS011;8434;47.990;7.880;2024-03-22T06:44:28;5.17;;;3.70;;
16640;SDS011;8434;47.990;7.880;2024-03-22T06:47:14;6.87;;;3.83;;
16640;SDS011;8434;47.990;7.880;2024-03-22T06:50:00;8.27;;;4.13;;
16640;SDS011;8434;47.990;7.880;2024-03-22T06:52:45;4.77;;;4.23;;
16640;SDS011;8434;47.990;7.880;2024-03-22T06:55:29;6.50;;;3.77;;
16640;SDS011;8434;47.990;7.880;2024-03-22T06:58:15;6.87;;;3.83;;
16640;SDS011;8434;47.990;7.880;2024-03-22T07:01:01;6.77;;;3.63;;
16640;SDS011;8434;47.990;7.880;2024-03-22T07:03:45;4.03;;;3.23;;
16640;SDS011;8434;47.990;7.880;2024-03-22T07:06:32;4.20;;;3.50;;
16640;SDS011;8434;47.990;7.880;2024-03-22T07:09:16;4.33;;;3.43;;
16640;SDS011;8434;47.990;7.880;2024-03-22T07:12:02;6.03;;;3.77;;
16640;SDS011;8434;47.990;7.880;2024-03-22T07:14:47;5.70;;;3.20;;
16640;SDS011;8434;47.990;7.880;2024-03-22T07:17:33;4.93;;;3.30;;
16640;SDS011;8434;47.990;7.880;2024-03-22T07:20:17;6.67;;;3.43;;
16640;SDS011;8434;47.990;7.880;2024-03-22T07:23:04;4.80;;;3.10;;
16640;SDS011;8434;47.990;7.880;2024-03-22T07:25:49;3.60;;;2.93;;
16640;SDS011;8434;47.990;7.880;2024-03-22T07:28:35;3.67;;;2.97;;
16640;SDS011;8434;47.990;7.880;2024-03-22T07:31:20;4.10;;;2.57;;
16640;SDS011;8434;47.990;7.880;2024-03-22T07:34:04;5.50;;;3.50;;
16640;SDS011;8434;47.990;7.880;2024-03-22T07:36:50;3.23;;;2.93;;
16640;SDS011;8434;47.990;7.880;2024-03-22T07:39:37;4.10;;;3.50;;
16640;SDS011;8434;47.990;7.880;2024-03-22T07:42:22;3.73;;;3.20;;
16640;SDS011;8434;47.990;7.880;2024-03-22T07:45:06;4.27;;;3.10;;
16640;SDS011;8434;47.990;7.880;2024-03-22T07:47:52;3.80;;;3.27;;
16640;SDS011;8434;47.990;7.880;2024-03-22T07:50:37;3.78;;;2.78;;
16640;SDS011;8434;47.990;7.880;2024-03-22T07:53:22;6.00;;;2.70;;
16640;SDS011;8434;47.990;7.880;2024-03-22T07:56:08;3.22;;;2.50;;
16640;SDS011;8434;47.990;7.880;2024-03-22T07:58:53;3.10;;;2.30;;
16640;SDS011;8434;47.990;7.880;2024-03-22T08:01:37;4.40;;;2.40;;
16640;SDS011;8434;47.990;7.880;2024-03-22T08:04:23;3.63;;;2.47;;
16640;SDS011;8434;47.990;7.880;2024-03-22T08:07:07;4.03;;;2.42;;
16640;SDS011;8434;47.990;7.880;2024-03-22T08:09:53;5.00;;;2.60;;
16640;SDS011;8434;47.990;7.880;2024-03-22T08:12:41;4.78;;;2.42;;
16640;SDS011;8434;47.990;7.880;2024-03-22T08:15:25;3.45;;;2.20;;
16640;SDS011;8434;47.990;7.880;2024-03-22T08:18:10;2.53;;;2.10;;
16640;SDS011;8434;47.990;7.880;2024-03-22T08:20:55;3.33;;;2.00;;
16640;SDS011;8434;47.990;7.880;2024-03-22T08:23:44;3.00;;;2.28;;
16640;SDS011;8434;47.990;7.880;2024-03-22T08:26:28;6.25;;;2.63;;
16640;SDS011;8434;47.990;7.880;2024-03-22T08:29:15;2.72;;;1.70;;
16640;SDS011;8434;47.990;7.880;2024-03-22T08:31:59;4.93;;;2.28;;
16640;SDS011;8434;47.990;7.880;2024-03-22T08:34:46;2.75;;;1.80;;
16640;SDS011;8434;47.990;7.880;2024-03-22T08:37:31;2.40;;;2.20;;
16640;SDS011;8434;47.990;7.880;2024-03-22T08:40:17;2.30;;;1.85;;
16640;SDS011;8434;47.990;7.880;2024-03-22T08:43:02;3.63;;;2.20;;
16640;SDS011;8434;47.990;7.880;2024-03-22T08:45:48;4.53;;;2.30;;
16640;SDS011;8434;47.990;7.880;2024-03-22T08:48:33;3.88;;;2.28;;
16640;SDS011;8434;47.990;7.880;2024-03-22T08:51:18;4.72;;;2.40;;
16640;SDS011;8434;47.990;7.880;2024-03-22T08:54:03;2.88;;;2.40;;
16640;SDS011;8434;47.990;7.880;2024-03-22T08:56:49;3.05;;;2.63;;
16640;SDS011;8434;47.990;7.880;2024-03-22T08:59:34;3.95;;;2.50;;
16640;SDS011;8434;47.990;7.880;2024-03-22T09:02:20;3.75;;;2.72;;
16640;SDS011;8434;47.990;7.880;2024-03-22T09:05:06;3.83;;;2.60;;
16640;SDS011;8434;47.990;7.880;2024-03-22T09:07:52;3.65;;;2.30;;
16640;SDS011;8434;47.990;7.880;2024-03-22T09:10:39;2.17;;;1.98;;
16640;SDS011;8434;47.990;7.880;2024-03-22T09:13:24;4.68;;;1.83;;
16640;SDS011;8434;47.990;7.880;2024-03-22T09:16:10;2.28;;;2.03;;
16640;SDS011;8434;47.990;7.880;2024-03-22T09:18:55;3.92;;;2.80;;
16640;SDS011;8434;47.990;7.880;2024-03-22T09:21:42;2.83;;;1.98;;
16640;SDS011;8434;47.990;7.880;2024-03-22T09:24:26;3.25;;;1.92;;
16640;SDS011;8434;47.990;7.880;2024-03-22T09:27:11;3.53;;;2.30;;
16640;SDS011;8434;47.990;7.880;2024-03-22T09:29:56;3.03;;;2.20;;
16640;SDS011;8434;47.990;7.880;2024-03-22T09:32:41;3.85;;;1.92;;
16640;SDS011;8434;47.990;7.880;2024-03-22T09:35:28;3.90;;;2.72;;
16640;SDS011;8434;47.990;7.880;2024-03-22T09:38:12;3.10;;;2.17;;
16640;SDS011;8434;47.990;7.880;2024-03-22T09:40:59;3.25;;;2.38;;
16640;SDS011;8434;47.990;7.880;2024-03-22T09:43:43;4.05;;;2.13;;
16640;SDS011;8434;47.990;7.880;2024-03-22T09:46:31;3.47;;;2.38;;
16640;SDS011;8434;47.990;7.880;2024-03-22T09:49:15;3.42;;;2.47;;
16640;SDS011;8434;47.990;7.880;2024-03-22T09:52:02;5.18;;;2.90;;
16640;SDS011;8434;47.990;7.880;2024-03-22T09:54:47;3.72;;;2.78;;
16640;SDS011;8434;47.990;7.880;2024-03-22T09:57:37;6.28;;;3.13;;
16640;SDS011;8434;47.990;7.880;2024-03-22T10:00:22;3.80;;;2.40;;
16640;SDS011;8434;47.990;7.880;2024-03-22T10:03:10;4.28;;;2.50;;
16640;SDS011;8434;47.990;7.880;2024-03-22T10:05:54;3.53;;;2.60;;
16640;SDS011;8434;47.990;7.880;2024-03-22T10:08:41;3.92;;;2.50;;
16640;SDS011;8434;47.990;7.880;2024-03-22T10:11:25;2.85;;;2.33;;
16640;SDS011;8434;47.990;7.880;2024-03-22T10:14:11;4.57;;;2.28;;
16640;SDS011;8434;47.990;7.880;2024-03-22T10:16:56;4.85;;;3.13;;
16640;SDS011;8434;47.990;7.880;2024-03-22T10:19:42;6.53;;;2.70;;
16640;SDS011;8434;47.990;7.880;2024-03-22T10:22:26;3.42;;;2.55;;
16640;SDS011;8434;47.990;7.880;2024-03-22T10:25:14;4.22;;;2.67;;
16640;SDS011;8434;47.990;7.880;2024-03-22T10:27:58;3.33;;;2.92;;
16640;SDS011;8434;47.990;7.880;2024-03-22T10:30:43;3.35;;;2.60;;
16640;SDS011;8434;47.990;7.880;2024-03-22T10:33:28;3.97;;;3.00;;
16640;SDS011;8434;47.990;7.880;2024-03-22T10:36:15;6.15;;;2.95;;
16640;SDS011;8434;47.990;7.880;2024-03-22T10:39:00;4.35;;;3.10;;
16640;SDS011;8434;47.990;7.880;2024-03-22T10:41:49;5.15;;;2.88;;
16640;SDS011;8434;47.990;7.880;2024-03-22T10:44:33;3.55;;;2.60;;
16640;SDS011;8434;47.990;7.880;2024-03-22T10:47:19;4.55;;;2.92;;
16640;SDS011;8434;47.990;7.880;2024-03-22T10:50:06;5.25;;;2.92;;
16640;SDS011;8434;47.990;7.880;2024-03-22T10:52:54;6.22;;;2.92;;
16640;SDS011;8434;47.990;7.880;2024-03-22T10:55:42;3.72;;;2.03;;
16640;SDS011;8434;47.990;7.880;2024-03-22T10:58:29;2.42;;;2.15;;
16640;SDS011;8434;47.990;7.880;2024-03-22T11:01:21;2.95;;;2.40;;
16640;SDS011;8434;47.990;7.880;2024-03-22T11:04:06;3.92;;;1.90;;
16640;SDS011;8434;47.990;7.880;2024-03-22T11:06:56;3.95;;;2.25;;
16640;SDS011;8434;47.990;7.880;2024-03-22T11:09:41;3.88;;;2.90;;
16640;SDS011;8434;47.990;7.880;2024-03-22T11:12:37;3.63;;;2.33;;
16640;SDS011;8434;47.990;7.880;2024-03-22T11:15:23;3.15;;;2.35;;
16640;SDS011;8434;47.990;7.880;2024-03-22T11:18:08;6.78;;;2.40;;
16640;SDS011;8434;47.990;7.880;2024-03-22T11:20:53;4.18;;;2.60;;
16640;SDS011;8434;47.990;7.880;2024-03-22T11:23:39;3.60;;;2.65;;
16640;SDS011;8434;47.990;7.880;2024-03-22T11:26:24;3.90;;;2.70;;
16640;SDS011;8434;47.990;7.880;2024-03-22T11:29:09;3.22;;;2.65;;
16640;SDS011;8434;47.990;7.880;2024-03-22T11:31:55;4.00;;;2.50;;
16640;SDS011;8434;47.990;7.880;2024-03-22T11:34:40;3.78;;;2.00;;
16640;SDS011;8434;47.990;7.880;2024-03-22T11:37:25;3.60;;;2.00;;
16640;SDS011;8434;47.990;7.880;2024-03-22T11:40:10;2.50;;;1.88;;
16640;SDS011;8434;47.990;7.880;2024-03-22T11:42:57;4.90;;;1.77;;
16640;SDS011;8434;47.990;7.880;2024-03-22T11:45:43;2.15;;;1.95;;
16640;SDS011;8434;47.990;7.880;2024-03-22T11:48:29;2.10;;;1.42;;
16640;SDS011;8434;47.990;7.880;2024-03-22T11:51:14;2.80;;;1.77;;
16640;SDS011;8434;47.990;7.880;2024-03-22T11:53:58;4.55;;;1.30;;
16640;SDS011;8434;47.990;7.880;2024-03-22T11:56:47;1.88;;;1.20;;
16640;SDS011;8434;47.990;7.880;2024-03-22T11:59:32;1.30;;;0.90;;
16640;SDS011;8434;47.990;7.880;2024-03-22T12:02:17;0.90;;;0.90;;
16640;SDS011;8434;47.990;7.880;2024-03-22T12:05:04;0.95;;;0.85;;
16640;SDS011;8434;47.990;7.880;2024-03-22T18:10:55;3.93;;;2.03;;
16640;SDS011;8434;47.990;7.880;2024-03-22T18:13:39;3.13;;;1.23;;
16640;SDS011;8434;47.990;7.880;2024-03-22T18:16:26;2.30;;;1.50;;
16640;SDS011;8434;47.990;7.880;2024-03-22T18:19:12;3.03;;;1.73;;
16640;SDS011;8434;47.990;7.880;2024-03-22T18:21:57;2.40;;;1.40;;
16640;SDS011;8434;47.990;7.880;2024-03-22T18:24:42;3.03;;;1.10;;
16640;SDS011;8434;47.990;7.880;2024-03-22T18:27:29;3.03;;;1.37;;
16640;SDS011;8434;47.990;7.880;2024-03-22T18:30:14;1.97;;;1.30;;
16640;SDS011;8434;47.990;7.880;2024-03-22T18:32:59;1.60;;;1.10;;
16640;SDS011;8434;47.990;7.880;2024-03-22T18:35:43;1.33;;;1.20;;
16640;SDS011;8434;47.990;7.880;2024-03-22T18:38:29;2.00;;;1.17;;
16640;SDS011;8434;47.990;7.880;2024-03-22T18:41:13;1.20;;;0.90;;
16640;SDS011;8434;47.990;7.880;2024-03-22T18:44:00;1.73;;;1.40;;
16640;SDS011;8434;47.990;7.880;2024-03-22T18:46:45;2.60;;;1.40;;
16640;SDS011;8434;47.990;7.880;2024-03-22T18:49:31;3.03;;;1.50;;
16640;SDS011;8434;47.990;7.880;2024-03-22T18:52:15;2.43;;;1.37;;
16640;SDS011;8434;47.990;7.880;2024-03-22T18:55:02;1.50;;;1.40;;
16640;SDS011;8434;47.990;7.880;2024-03-22T18:57:48;2.57;;;1.57;;
16640;SDS011;8434;47.990;7.880;2024-03-22T19:00:34;2.47;;;1.20;;
16640;SDS011;8434;47.990;7.880;2024-03-22T19:03:20;4.23;;;1.23;;
16640;SDS011;8434;47.990;7.880;2024-03-22T19:06:04;1.73;;;1.20;;
16640;SDS011;8434;47.990;7.880;2024-03-22T19:08:49;2.03;;;1.40;;
16640;SDS011;8434;47.990;7.880;2024-03-22T19:11:34;2.93;;;1.70;;
16640;SDS011;8434;47.990;7.880;2024-03-22T19:14:19;2.23;;;1.40;;
16640;SDS011;8434;47.990;7.880;2024-03-22T19:17:05;2.53;;;1.33;;
16640;SDS011;8434;47.990;7.880;2024-03-22T19:19:52;1.77;;;1.60;;
16640;SDS011;8434;47.990;7.880;2024-03-22T19:22:38;2.73;;;1.63;;
16640;SDS011;8434;47.990;7.880;2024-03-22T19:25:22;2.30;;;1.47;;
16640;SDS011;8434;47.990;7.880;2024-03-22T19:28:08;10.87;;;5.10;;
16640;SDS011;8434;47.990;7.880;2024-03-22T19:30:53;2.13;;;1.30;;
16640;SDS011;8434;47.990;7.880;2024-03-22T19:33:40;2.00;;;1.43;;
16640;SDS011;8434;47.990;7.880;2024-03-22T19:36:26;4.90;;;2.53;;
16640;SDS011;8434;47.990;7.880;2024-03-22T19:39:12;3.57;;;1.97;;
16640;SDS011;8434;47.990;7.880;2024-03-22T19:41:56;2.70;;;1.83;;
16640;SDS011;8434;47.990;7.880;2024-03-22T19:44:42;5.13;;;1.60;;
16640;SDS011;8434;47.990;7.880;2024-03-22T19:47:27;2.37;;;1.57;;
16640;SDS011;8434;47.990;7.880;2024-03-22T19:50:13;2.67;;;1.60;;
16640;SDS011;8434;47.990;7.880;2024-03-22T19:52:57;4.07;;;1.83;;
16640;SDS011;8434;47.990;7.880;2024-03-22T19:55:43;6.03;;;2.20;;
16640;SDS011;8434;47.990;7.880;2024-03-22T19:58:27;3.20;;;2.10;;
16640;SDS011;8434;47.990;7.880;2024-03-22T20:01:13;3.43;;;2.20;;
16640;SDS011;8434;47.990;7.880;2024-03-22T20:03:59;2.90;;;2.20;;
16640;SDS011;8434;47.990;7.880;2024-03-22T20:06:46;3.73;;;1.97;;
16640;SDS011;8434;47.990;7.880;2024-03-22T20:09:31;3.17;;;2.27;;
16640;SDS011;8434;47.990;7.880;2024-03-22T20:12:16;4.57;;;2.53;;
16640;SDS011;8434;47.990;7.880;2024-03-22T20:15:01;4.03;;;2.30;;
16640;SDS011;8434;47.990;7.880;2024-03-22T20:17:47;3.77;;;2.63;;
16640;SDS011;8434;47.990;7.880;2024-03-22T20:20:33;3.10;;;2.50;;
16640;SDS011;8434;47.990;7.880;2024-03-22T20:23:20;4.77;;;2.43;;
16640;SDS011;8434;47.990;7.880;2024-03-22T20:26:05;4.47;;;2.30;;
16640;SDS011;8434;47.990;7.880;2024-03-22T20:28:50;3.43;;;2.27;;
16640;SDS011;8434;47.990;7.880;2024-03-22T20:31:35;3.20;;;2.60;;
16640;SDS011;8434;47.990;7.880;2024-03-22T20:34:23;2.97;;;2.47;;
16640;SDS011;8434;47.990;7.880;2024-03-22T20:37:07;3.80;;;2.83;;
